createdAt,value
2019-01-29T00:01:59.954Z,16.77
2019-01-29T00:04:29.679Z,20.93
2019-01-29T00:06:59.425Z,21.47
2019-01-29T00:09:29.134Z,24.20
2019-01-29T00:11:58.880Z,22.03
2019-01-29T00:14:28.598Z,22.80
2019-01-29T00:16:58.365Z,18.30
2019-01-29T00:19:28.082Z,21.47
2019-01-29T00:21:57.839Z,20.23
2019-01-29T00:24:27.568Z,21.17
2019-01-29T00:26:57.327Z,27.00
2019-01-29T00:29:27.069Z,24.13
2019-01-29T00:31:57.800Z,20.50
2019-01-29T00:34:27.538Z,21.87
2019-01-29T00:36:57.271Z,21.90
2019-01-29T00:39:26.984Z,20.10
2019-01-29T00:41:56.741Z,20.20
2019-01-29T00:44:26.451Z,21.43
2019-01-29T00:46:56.201Z,21.77
2019-01-29T00:49:25.944Z,22.40
2019-01-29T00:51:55.693Z,23.30
2019-01-29T00:54:25.420Z,21.87
2019-01-29T00:56:55.163Z,20.87
2019-01-29T00:59:24.886Z,19.17
2019-01-29T01:01:54.629Z,19.37
2019-01-29T01:04:24.377Z,20.30
2019-01-29T01:06:54.096Z,22.50
2019-01-29T01:09:23.884Z,22.00
2019-01-29T01:11:53.594Z,23.47
2019-01-29T01:14:23.345Z,17.87
2019-01-29T01:16:53.068Z,20.87
2019-01-29T01:19:22.902Z,20.47
2019-01-29T01:21:52.612Z,23.57
2019-01-29T01:24:22.382Z,24.33
2019-01-29T01:26:52.109Z,29.83
2019-01-29T01:29:21.874Z,22.03
2019-01-29T01:31:51.618Z,23.30
2019-01-29T01:34:21.365Z,22.33
2019-01-29T01:36:51.103Z,22.77
2019-01-29T01:39:20.867Z,23.60
2019-01-29T01:41:50.600Z,25.63
2019-01-29T01:44:20.364Z,25.17
2019-01-29T01:46:50.089Z,24.10
2019-01-29T01:49:19.830Z,25.53
2019-01-29T01:51:49.560Z,21.27
2019-01-29T01:54:19.306Z,25.50
2019-01-29T01:56:49.037Z,23.13
2019-01-29T01:59:18.791Z,22.40
2019-01-29T02:01:48.616Z,30.03
2019-01-29T02:04:18.342Z,26.00
2019-01-29T02:06:48.078Z,26.70
2019-01-29T02:09:17.834Z,23.47
2019-01-29T02:11:47.569Z,25.13
2019-01-29T02:14:17.337Z,24.60
2019-01-29T02:16:47.051Z,23.63
2019-01-29T02:19:16.806Z,28.03
2019-01-29T02:21:46.529Z,26.53
2019-01-29T02:24:16.294Z,22.63
2019-01-29T02:26:46.016Z,27.60
2019-01-29T02:29:15.771Z,23.23
2019-01-29T02:31:45.495Z,27.33
2019-01-29T02:34:15.254Z,20.73
2019-01-29T02:36:44.966Z,22.33
2019-01-29T02:39:14.707Z,23.03
2019-01-29T02:41:44.438Z,25.40
2019-01-29T02:44:14.199Z,27.27
2019-01-29T02:46:43.944Z,25.37
2019-01-29T02:49:13.694Z,25.10
2019-01-29T02:51:43.431Z,27.23
2019-01-29T02:54:13.161Z,24.13
2019-01-29T02:56:42.907Z,24.40
2019-01-29T02:59:12.651Z,24.67
2019-01-29T03:01:42.377Z,23.17
2019-01-29T03:04:12.121Z,23.80
2019-01-29T03:06:41.828Z,27.43
2019-01-29T03:09:11.572Z,25.80
2019-01-29T03:11:41.294Z,22.80
2019-01-29T03:14:11.040Z,24.67
2019-01-29T03:16:40.767Z,24.67
2019-01-29T03:19:10.523Z,26.27
2019-01-29T03:21:40.263Z,25.17
2019-01-29T03:24:10.016Z,28.07
2019-01-29T03:26:39.748Z,24.50
2019-01-29T03:29:09.501Z,24.27
2019-01-29T03:31:39.236Z,21.67
2019-01-29T03:34:08.982Z,28.27
2019-01-29T03:36:38.691Z,26.00
2019-01-29T03:39:08.448Z,29.33
2019-01-29T03:41:38.162Z,26.47
2019-01-29T03:44:07.946Z,22.67
2019-01-29T03:46:37.728Z,28.73
2019-01-29T03:49:07.470Z,23.70
2019-01-29T03:51:37.228Z,26.67
2019-01-29T03:54:06.990Z,23.40
2019-01-29T03:56:36.716Z,21.90
2019-01-29T03:59:06.479Z,29.60
2019-01-29T04:01:36.192Z,29.83
2019-01-29T04:04:05.976Z,25.50
2019-01-29T04:06:35.715Z,24.73
2019-01-29T04:09:07.776Z,30.97
2019-01-29T04:11:37.509Z,28.97
2019-01-29T04:14:07.240Z,26.70
2019-01-29T04:16:36.957Z,25.57
2019-01-29T04:19:06.800Z,24.33
2019-01-29T04:21:36.632Z,29.47
2019-01-29T04:24:06.348Z,30.50
2019-01-29T04:26:36.108Z,26.93
2019-01-29T04:29:05.849Z,30.03
2019-01-29T04:31:35.605Z,25.00
2019-01-29T04:34:05.336Z,27.60
2019-01-29T04:36:35.074Z,27.23
2019-01-29T04:39:07.065Z,30.53
2019-01-29T04:41:36.822Z,24.07
2019-01-29T04:44:06.566Z,34.57
2019-01-29T04:46:36.316Z,29.57
2019-01-29T04:49:06.029Z,32.83
2019-01-29T04:51:35.807Z,27.00
2019-01-29T04:54:05.566Z,28.70
2019-01-29T04:56:35.364Z,34.70
2019-01-29T04:59:05.144Z,33.57
2019-01-29T05:01:34.915Z,35.87
2019-01-29T05:04:04.847Z,34.80
2019-01-29T05:06:34.607Z,35.20
2019-01-29T05:09:07.347Z,39.83
2019-01-29T05:11:37.108Z,33.40
2019-01-29T05:14:06.854Z,36.70
2019-01-29T05:16:36.614Z,33.30
2019-01-29T05:19:06.366Z,33.43
2019-01-29T05:21:36.135Z,39.37
2019-01-29T05:24:06.986Z,35.93
2019-01-29T05:26:37.224Z,38.10
2019-01-29T05:29:06.954Z,39.73
2019-01-29T05:31:36.703Z,40.60
2019-01-29T05:34:06.441Z,46.93
2019-01-29T05:36:36.197Z,37.57
2019-01-29T05:39:08.137Z,41.53
2019-01-29T05:41:37.890Z,39.33
2019-01-29T05:44:07.629Z,35.53
2019-01-29T05:46:37.398Z,39.03
2019-01-29T05:49:07.140Z,36.77
2019-01-29T05:51:36.971Z,41.87
2019-01-29T05:54:15.757Z,42.63
2019-01-29T05:56:38.183Z,34.17
2019-01-29T05:59:07.937Z,45.47
2019-01-29T06:01:37.696Z,37.47
2019-01-29T06:04:07.468Z,39.37
2019-01-29T06:06:37.252Z,40.07
2019-01-29T06:09:07.960Z,40.43
2019-01-29T06:11:37.776Z,43.10
2019-01-29T06:14:07.539Z,32.97
2019-01-29T06:16:37.292Z,34.13
2019-01-29T06:19:07.066Z,38.00
2019-01-29T06:21:36.810Z,32.57
2019-01-29T06:24:06.573Z,38.43
2019-01-29T06:26:36.312Z,35.03
2019-01-29T06:29:06.084Z,35.97
2019-01-29T06:31:35.866Z,36.10
2019-01-29T06:34:05.611Z,35.47
2019-01-29T06:36:35.349Z,34.93
2019-01-29T06:39:06.627Z,40.97
2019-01-29T06:41:36.413Z,39.90
2019-01-29T06:44:06.236Z,45.87
2019-01-29T06:46:36.008Z,37.00
2019-01-29T06:49:05.786Z,45.13
2019-01-29T06:51:35.542Z,44.03
2019-01-29T06:54:05.278Z,40.27
2019-01-29T06:56:35.065Z,38.77
2019-01-29T06:59:04.802Z,45.27
2019-01-29T07:01:34.624Z,41.97
2019-01-29T07:04:04.437Z,46.93
2019-01-29T07:06:34.207Z,48.97
2019-01-29T07:09:07.051Z,49.33
2019-01-29T07:11:36.811Z,46.30
2019-01-29T07:14:06.552Z,52.87
2019-01-29T07:16:37.971Z,49.83
2019-01-29T07:19:09.367Z,50.90
2019-01-29T07:21:39.122Z,50.93
2019-01-29T07:24:08.884Z,53.80
2019-01-29T07:26:38.651Z,54.40
2019-01-29T07:29:08.422Z,56.17
2019-01-29T07:31:38.226Z,57.80
2019-01-29T07:34:07.976Z,60.13
2019-01-29T07:36:37.880Z,57.03
2019-01-29T07:39:09.518Z,57.10
2019-01-29T07:41:39.320Z,62.23
2019-01-29T07:44:09.171Z,61.33
2019-01-29T07:46:38.902Z,71.00
2019-01-29T07:49:08.768Z,73.27
2019-01-29T07:51:38.507Z,71.60
2019-01-29T07:54:08.288Z,65.70
2019-01-29T07:56:38.035Z,69.03
2019-01-29T07:59:07.912Z,73.10
2019-01-29T08:01:37.742Z,72.67
2019-01-29T08:04:08.755Z,69.63
2019-01-29T08:06:38.615Z,69.10
2019-01-29T08:09:09.583Z,73.07
2019-01-29T08:11:39.443Z,75.93
2019-01-29T08:14:09.231Z,71.40
2019-01-29T08:16:39.000Z,78.67
2019-01-29T08:19:08.821Z,74.13
2019-01-29T08:21:38.550Z,76.07
2019-01-29T08:24:08.308Z,75.23
2019-01-29T08:26:38.071Z,75.50
2019-01-29T08:29:07.877Z,77.17
2019-01-29T08:31:37.702Z,82.87
2019-01-29T08:34:07.495Z,86.00
2019-01-29T08:36:37.278Z,74.17
2019-01-29T08:39:07.724Z,77.23
2019-01-29T08:41:37.476Z,76.57
2019-01-29T08:44:07.237Z,83.77
2019-01-29T08:46:36.973Z,71.17
2019-01-29T08:49:06.737Z,73.20
2019-01-29T08:51:36.716Z,71.73
2019-01-29T08:54:06.501Z,77.53
2019-01-29T08:56:36.326Z,68.93
2019-01-29T08:59:06.127Z,75.27
2019-01-29T09:01:35.873Z,74.97
2019-01-29T09:04:05.618Z,73.37
2019-01-29T09:06:35.373Z,70.10
2019-01-29T09:09:08.569Z,76.53
2019-01-29T09:11:38.495Z,75.53
2019-01-29T09:14:08.266Z,80.30
2019-01-29T09:16:38.001Z,70.77
2019-01-29T09:19:07.760Z,76.53
2019-01-29T09:21:37.492Z,72.63
2019-01-29T09:24:07.264Z,66.40
2019-01-29T09:26:37.007Z,73.00
2019-01-29T09:29:06.778Z,76.70
2019-01-29T09:31:36.515Z,81.30
2019-01-29T09:34:06.370Z,82.73
2019-01-29T09:36:36.187Z,83.37
2019-01-29T09:39:08.390Z,88.10
2019-01-29T09:41:38.284Z,90.33
2019-01-29T09:44:08.089Z,88.97
2019-01-29T09:46:37.831Z,87.67
2019-01-29T09:49:07.923Z,78.47
2019-01-29T09:51:37.668Z,77.33
2019-01-29T09:54:07.804Z,78.87
2019-01-29T09:56:37.542Z,88.50
2019-01-29T09:59:07.301Z,75.77
2019-01-29T10:01:37.066Z,82.37
2019-01-29T10:04:06.812Z,81.60
2019-01-29T10:06:36.544Z,80.53
2019-01-29T10:09:07.658Z,72.27
2019-01-29T10:11:37.404Z,78.13
2019-01-29T10:14:07.189Z,70.27
2019-01-29T10:16:36.907Z,74.13
2019-01-29T10:19:06.662Z,68.80
2019-01-29T10:21:36.427Z,68.43
2019-01-29T10:24:06.194Z,66.73
2019-01-29T10:26:36.001Z,65.13
2019-01-29T10:29:05.799Z,67.63
2019-01-29T10:31:35.539Z,69.13
2019-01-29T10:34:05.298Z,63.37
2019-01-29T10:36:36.567Z,70.53
2019-01-29T10:39:08.698Z,65.07
2019-01-29T10:41:38.441Z,70.70
2019-01-29T10:44:08.898Z,63.70
2019-01-29T10:46:38.730Z,65.90
2019-01-29T10:49:08.491Z,70.57
2019-01-29T10:51:38.306Z,66.13
2019-01-29T10:54:09.162Z,69.60
2019-01-29T10:56:39.111Z,65.30
2019-01-29T10:59:09.928Z,67.73
2019-01-29T11:01:39.648Z,64.37
2019-01-29T11:04:09.450Z,63.63
2019-01-29T11:06:39.204Z,70.13
2019-01-29T11:09:10.312Z,60.60
2019-01-29T11:11:40.041Z,66.50
2019-01-29T11:14:09.943Z,63.93
2019-01-29T11:16:39.681Z,69.70
2019-01-29T11:19:09.456Z,64.07
2019-01-29T11:21:39.207Z,65.00
2019-01-29T11:24:08.995Z,60.53
2019-01-29T11:26:38.733Z,59.70
2019-01-29T11:29:08.497Z,63.90
2019-01-29T11:31:38.236Z,57.73
2019-01-29T11:34:08.041Z,62.50
2019-01-29T11:36:37.792Z,59.60
2019-01-29T11:39:08.511Z,57.97
2019-01-29T11:41:38.262Z,57.37
2019-01-29T11:44:08.039Z,60.57
2019-01-29T11:46:37.783Z,54.33
2019-01-29T11:49:07.571Z,57.83
2019-01-29T11:51:37.382Z,55.23
2019-01-29T11:54:07.152Z,61.60
2019-01-29T11:56:36.892Z,52.90
2019-01-29T11:59:06.637Z,55.73
2019-01-29T12:01:36.570Z,50.40
2019-01-29T12:04:06.322Z,51.00
2019-01-29T12:06:36.039Z,52.77
2019-01-29T12:09:08.057Z,49.77
2019-01-29T12:11:38.785Z,51.07
2019-01-29T12:14:08.541Z,50.57
2019-01-29T12:16:38.275Z,50.73
2019-01-29T12:19:08.040Z,49.47
2019-01-29T12:21:37.791Z,45.93
2019-01-29T12:24:07.564Z,46.50
2019-01-29T12:26:37.287Z,47.83
2019-01-29T12:29:07.051Z,44.20
2019-01-29T12:31:36.797Z,40.37
2019-01-29T12:34:07.721Z,40.33
2019-01-29T12:36:37.449Z,45.27
2019-01-29T12:39:07.906Z,44.97
2019-01-29T12:41:37.730Z,45.23
2019-01-29T12:44:07.547Z,41.07
2019-01-29T12:46:37.301Z,41.73
2019-01-29T12:49:07.122Z,42.70
2019-01-29T12:51:37.951Z,37.23
2019-01-29T12:54:07.718Z,38.43
2019-01-29T12:56:37.488Z,39.47
2019-01-29T12:59:07.212Z,34.90
2019-01-29T13:01:37.063Z,37.90
2019-01-29T13:04:06.819Z,38.80
2019-01-29T13:06:36.582Z,37.47
2019-01-29T13:09:08.458Z,33.77
2019-01-29T13:11:39.181Z,37.20
2019-01-29T13:14:08.908Z,36.63
2019-01-29T13:16:38.670Z,33.10
2019-01-29T13:19:08.494Z,34.97
2019-01-29T13:21:38.259Z,31.37
2019-01-29T13:24:08.017Z,33.87
2019-01-29T13:26:38.011Z,33.60
2019-01-29T13:29:07.881Z,27.13
2019-01-29T13:31:37.624Z,31.50
2019-01-29T13:34:07.378Z,30.83
2019-01-29T13:36:37.135Z,30.03
2019-01-29T13:39:07.699Z,26.60
2019-01-29T13:41:37.479Z,27.80
2019-01-29T13:44:07.203Z,25.57
2019-01-29T13:46:36.976Z,26.30
2019-01-29T13:49:06.697Z,30.03
2019-01-29T13:51:36.460Z,28.87
2019-01-29T13:54:07.172Z,27.53
2019-01-29T13:56:38.997Z,27.80
2019-01-29T13:59:08.400Z,32.57
2019-01-29T14:01:38.159Z,29.57
2019-01-29T14:04:07.907Z,30.20
2019-01-29T14:06:37.669Z,27.67
2019-01-29T14:09:08.586Z,29.20
2019-01-29T14:11:38.344Z,30.60
2019-01-29T14:14:08.097Z,27.87
2019-01-29T14:16:37.871Z,29.00
2019-01-29T14:19:07.628Z,30.47
2019-01-29T14:21:37.393Z,26.97
2019-01-29T14:24:07.211Z,28.97
2019-01-29T14:26:36.985Z,28.03
2019-01-29T14:29:06.714Z,29.77
2019-01-29T14:31:36.573Z,29.37
2019-01-29T14:34:06.298Z,31.50
2019-01-29T14:36:36.087Z,30.13
2019-01-29T14:39:12.186Z,29.90
2019-01-29T14:41:41.965Z,32.30
2019-01-29T14:44:12.802Z,29.77
2019-01-29T14:46:42.550Z,30.80
2019-01-29T14:49:12.474Z,32.43
2019-01-29T14:51:42.269Z,31.23
2019-01-29T14:54:12.004Z,30.17
2019-01-29T14:56:41.790Z,30.27
2019-01-29T14:59:12.036Z,30.00
2019-01-29T15:01:43.863Z,32.73
2019-01-29T15:04:13.256Z,34.07
2019-01-29T15:06:43.007Z,29.63
2019-01-29T15:09:12.813Z,29.23
2019-01-29T15:11:42.542Z,30.87
2019-01-29T15:14:12.287Z,33.17
2019-01-29T15:16:43.792Z,34.27
2019-01-29T15:19:13.636Z,31.23
2019-01-29T15:21:43.396Z,30.13
2019-01-29T15:24:13.607Z,34.77
2019-01-29T15:26:43.435Z,29.17
2019-01-29T15:29:14.264Z,31.00
2019-01-29T15:31:44.030Z,30.70
2019-01-29T15:34:13.761Z,28.80
2019-01-29T15:36:44.215Z,32.47
2019-01-29T15:39:13.971Z,30.90
2019-01-29T15:41:43.770Z,28.67
2019-01-29T15:44:13.536Z,24.27
2019-01-29T15:46:43.289Z,26.03
2019-01-29T15:49:13.066Z,27.43
2019-01-29T15:51:42.824Z,28.70
2019-01-29T15:54:12.601Z,26.87
2019-01-29T15:56:42.344Z,29.47
2019-01-29T15:59:12.104Z,28.63
2019-01-29T16:01:41.904Z,29.30
2019-01-29T16:04:11.628Z,30.53
2019-01-29T16:06:41.411Z,28.03
2019-01-29T16:09:11.221Z,41.23
2019-01-29T16:11:40.982Z,25.10
2019-01-29T16:14:10.752Z,30.40
2019-01-29T16:16:40.518Z,28.80
2019-01-29T16:19:10.296Z,25.80
2019-01-29T16:21:40.045Z,26.07
2019-01-29T16:24:09.852Z,24.87
2019-01-29T16:26:39.722Z,26.57
2019-01-29T16:29:09.492Z,28.07
2019-01-29T16:31:39.268Z,21.20
2019-01-29T16:34:08.997Z,21.87
2019-01-29T16:36:38.771Z,23.07
2019-01-29T16:39:09.628Z,21.23
2019-01-29T16:41:39.352Z,20.77
2019-01-29T16:44:09.109Z,18.23
2019-01-29T16:46:38.884Z,23.50
2019-01-29T16:49:08.792Z,20.77
2019-01-29T16:51:42.343Z,19.13
2019-01-29T16:54:10.001Z,24.43
2019-01-29T16:56:39.882Z,22.13
2019-01-29T16:59:09.637Z,23.77
2019-01-29T17:01:39.393Z,23.27
2019-01-29T17:04:09.167Z,20.67
2019-01-29T17:06:38.898Z,19.17
2019-01-29T17:09:09.140Z,24.13
2019-01-29T17:11:38.910Z,21.23
2019-01-29T17:14:08.684Z,22.70
2019-01-29T17:16:38.427Z,21.70
2019-01-29T17:19:08.372Z,22.33
2019-01-29T17:21:38.112Z,23.50
2019-01-29T17:24:07.879Z,19.97
2019-01-29T17:26:37.630Z,22.37
2019-01-29T17:29:07.419Z,21.03
2019-01-29T17:31:37.162Z,20.90
2019-01-29T17:34:07.029Z,20.40
2019-01-29T17:36:36.748Z,26.37
2019-01-29T17:39:07.292Z,26.10
2019-01-29T17:41:37.088Z,25.77
2019-01-29T17:44:06.842Z,27.27
2019-01-29T17:46:36.678Z,23.40
2019-01-29T17:49:06.496Z,26.40
2019-01-29T17:51:36.416Z,21.37
2019-01-29T17:54:06.283Z,25.60
2019-01-29T17:56:36.037Z,27.10
2019-01-29T17:59:05.811Z,24.67
2019-01-29T18:01:35.703Z,24.33
2019-01-29T18:04:05.550Z,23.60
2019-01-29T18:06:35.327Z,22.67
2019-01-29T18:09:08.962Z,23.17
2019-01-29T18:11:38.808Z,22.10
2019-01-29T18:14:08.611Z,22.03
2019-01-29T18:16:38.358Z,24.13
2019-01-29T18:19:08.227Z,21.37
2019-01-29T18:21:37.979Z,24.00
2019-01-29T18:24:07.753Z,23.43
2019-01-29T18:26:37.589Z,24.97
2019-01-29T18:29:07.354Z,21.27
2019-01-29T18:31:37.101Z,24.20
2019-01-29T18:34:06.935Z,22.60
2019-01-29T18:36:36.787Z,41.37
2019-01-29T18:39:07.633Z,28.60
2019-01-29T18:41:37.381Z,23.53
2019-01-29T18:44:07.155Z,24.47
2019-01-29T18:46:37.019Z,25.33
2019-01-29T18:49:06.806Z,24.93
2019-01-29T18:51:36.528Z,24.60
2019-01-29T18:54:06.308Z,22.20
2019-01-29T18:56:36.067Z,24.33
2019-01-29T18:59:05.850Z,23.70
2019-01-29T19:01:35.707Z,27.67
2019-01-29T19:04:05.537Z,23.90
2019-01-29T19:06:35.344Z,22.40
2019-01-29T19:09:06.831Z,22.20
2019-01-29T19:11:36.606Z,21.13
2019-01-29T19:14:06.408Z,21.90
2019-01-29T19:16:36.237Z,23.47
2019-01-29T19:19:06.033Z,25.20
2019-01-29T19:21:35.779Z,25.07
2019-01-29T19:24:05.582Z,20.50
2019-01-29T19:26:35.307Z,25.40
2019-01-29T19:29:06.633Z,23.17
2019-01-29T19:31:36.518Z,20.40
2019-01-29T19:34:06.367Z,22.80
2019-01-29T19:36:37.330Z,22.03
2019-01-29T19:39:08.200Z,22.57
2019-01-29T19:41:37.937Z,20.17
2019-01-29T19:44:07.715Z,20.77
2019-01-29T19:46:37.465Z,20.40
2019-01-29T19:49:07.229Z,19.07
2019-01-29T19:51:36.978Z,22.30
2019-01-29T19:54:06.764Z,19.83
2019-01-29T19:56:36.581Z,23.37
2019-01-29T19:59:07.461Z,18.33
2019-01-29T20:01:37.434Z,20.97
2019-01-29T20:04:07.356Z,20.00
2019-01-29T20:06:37.157Z,22.20
2019-01-29T20:09:09.401Z,21.47
2019-01-29T20:11:39.271Z,21.90
2019-01-29T20:14:09.105Z,21.00
2019-01-29T20:16:38.864Z,19.30
2019-01-29T20:19:08.656Z,21.70
2019-01-29T20:21:38.420Z,23.37
2019-01-29T20:24:08.223Z,21.00
2019-01-29T20:26:38.015Z,23.90
2019-01-29T20:29:07.777Z,23.60
2019-01-29T20:31:37.573Z,23.03
2019-01-29T20:34:07.395Z,23.57
2019-01-29T20:36:37.192Z,22.97
2019-01-29T20:39:07.759Z,22.67
2019-01-29T20:41:37.609Z,24.23
2019-01-29T20:44:07.389Z,23.43
2019-01-29T20:46:37.248Z,25.57
2019-01-29T20:49:07.017Z,23.67
2019-01-29T20:51:36.816Z,25.63
2019-01-29T20:54:06.573Z,27.10
2019-01-29T20:56:36.340Z,24.93
2019-01-29T20:59:06.136Z,29.27
2019-01-29T21:01:35.912Z,30.47
2019-01-29T21:04:05.680Z,27.77
2019-01-29T21:06:35.515Z,27.53
2019-01-29T21:09:07.437Z,26.93
2019-01-29T21:11:37.254Z,27.17
2019-01-29T21:14:07.015Z,29.93
2019-01-29T21:16:36.737Z,30.40
2019-01-29T21:19:06.506Z,28.73
2019-01-29T21:21:36.287Z,28.27
2019-01-29T21:24:06.093Z,28.13
2019-01-29T21:26:36.842Z,28.27
2019-01-29T21:29:06.580Z,28.47
2019-01-29T21:31:36.348Z,29.80
2019-01-29T21:34:06.228Z,29.73
2019-01-29T21:36:36.003Z,28.87
2019-01-29T21:39:08.290Z,28.80
2019-01-29T21:41:38.045Z,30.57
2019-01-29T21:44:07.796Z,32.47
2019-01-29T21:46:37.945Z,31.00
2019-01-29T21:49:07.671Z,32.80
2019-01-29T21:51:37.449Z,32.13
2019-01-29T21:54:07.216Z,31.60
2019-01-29T21:56:36.983Z,30.27
2019-01-29T21:59:13.083Z,33.93
2019-01-29T22:01:38.231Z,34.27
2019-01-29T22:04:08.004Z,30.80
2019-01-29T22:06:37.888Z,34.67
2019-01-29T22:09:08.481Z,34.30
2019-01-29T22:11:38.276Z,33.87
2019-01-29T22:14:08.083Z,35.60
2019-01-29T22:16:37.825Z,32.93
2019-01-29T22:19:07.597Z,32.50
2019-01-29T22:21:37.370Z,33.80
2019-01-29T22:24:07.088Z,34.00
2019-01-29T22:26:36.905Z,34.30
2019-01-29T22:29:06.673Z,36.87
2019-01-29T22:31:36.397Z,36.43
2019-01-29T22:34:06.167Z,34.13
2019-01-29T22:36:35.921Z,34.07
2019-01-29T22:39:07.828Z,35.27
2019-01-29T22:41:37.615Z,32.70
2019-01-29T22:44:07.389Z,34.50
2019-01-29T22:46:37.113Z,31.27
2019-01-29T22:49:06.868Z,32.27
2019-01-29T22:51:36.631Z,31.40
2019-01-29T22:54:06.389Z,32.67
2019-01-29T22:56:36.169Z,31.77
2019-01-29T22:59:06.054Z,31.47
2019-01-29T23:01:36.075Z,29.87
2019-01-29T23:04:07.045Z,33.50
2019-01-29T23:06:43.133Z,31.83
2019-01-29T23:09:12.920Z,33.33
2019-01-29T23:11:42.689Z,31.20
2019-01-29T23:14:12.599Z,32.63
2019-01-29T23:16:42.352Z,31.53
2019-01-29T23:19:12.134Z,31.87
2019-01-29T23:21:41.899Z,29.70
2019-01-29T23:24:11.634Z,29.97
2019-01-29T23:26:41.409Z,31.43
2019-01-29T23:29:11.216Z,32.03
2019-01-29T23:31:41.964Z,31.80
2019-01-29T23:34:11.695Z,28.87
2019-01-29T23:36:41.467Z,31.17
2019-01-29T23:39:11.256Z,32.20
2019-01-29T23:41:41.030Z,31.47
2019-01-29T23:44:10.854Z,29.47
2019-01-29T23:46:40.592Z,29.97
2019-01-29T23:49:10.450Z,31.40
2019-01-29T23:51:40.189Z,28.77
2019-01-29T23:54:09.932Z,30.80
2019-01-29T23:56:39.700Z,29.50
2019-01-29T23:59:09.448Z,30.50
